Flight Track Log - Related Links

Times and Time Zones

All times are in EDT time to prevent confusion due to time zone crossing. See the SWA1130 flight status page for this flight to view local times or setup timezone preferences in your user account.

Time Position Orientation Groundspeed Altitude Reporting Facility
EDT Latitude Longitude Course Direction KTS MPH feet Rate Location/Type
Sun 07:52:40 PM 39.1500 -76.6500 106° East 153 176 1,600  Level Potomac TRACON
Sun 07:55:09 PM 39.1122 -76.4850 106° East 221 254 7,900 2,756 Climbing Washington Center
Sun 07:56:09 PM 39.1275 -76.3783 80° East 249 287 11,200 3,407 Climbing Washington Center
Sun 07:57:07 PM 39.1450 -76.2553 80° East 305 351 14,600 3,429 Climbing Washington Center
Sun 07:58:08 PM 39.1644 -76.1108 80° East 351 404 18,000 3,049 Climbing Washington Center
Sun 07:59:09 PM 39.1794 -75.9744 82° East 374 430 20,800 2,339 Climbing Washington Center
Sun 08:00:06 PM 39.2069 -75.8622 72° East 389 448 22,600 2,420 Climbing Washington Center
Sun 08:01:08 PM 39.3072 -75.7364 44° Northeast 401 461 25,600 2,361 Climbing Washington Center
Sun 08:02:08 PM 39.3947 -75.6211 45° Northeast 420 483 27,400 1,736 Climbing Washington Center
Sun 08:03:09 PM 39.4864 -75.5028 45° Northeast 443 510 29,100 1,785 Climbing Washington Center
Sun 08:04:09 PM 39.5781 -75.3814 46° Northeast 459 528 31,000 2,020 Climbing Washington Center
Sun 08:06:34 PM 39.7953 -75.0775 47° Northeast 501 577 36,000 1,756 Climbing New York Center
Sun 08:07:34 PM 39.8831 -74.9531 47° Northeast 481 554 37,000 500 Climbing New York Center
Sun 08:08:34 PM 39.9881 -74.8131 46° Northeast 481 554 37,000  Level New York Center
Sun 08:09:34 PM 40.0758 -74.6800 49° Northeast 481 554 37,000  Level New York Center
Sun 08:10:34 PM 40.1875 -74.5856 33° Northeast 466 536 37,000 600 Level New York Center
Sun 08:11:34 PM 40.3064 -74.5133 25° Northeast 466 536 38,200 1,000 Climbing New York Center
Sun 08:12:34 PM 40.4231 -74.4461 24° Northeast 460 529 39,000 350 Climbing New York Center
Sun 08:13:34 PM 40.5442 -74.3761 24° Northeast 460 529 38,900  Descending New York Center
Sun 08:14:34 PM 40.6628 -74.3111 23° Northeast 460 529 39,000 30 Climbing New York Center
Sun 08:16:52 PM 40.9344 -74.1736 21° North 456 525 39,000  Level Boston Center
Sun 08:17:53 PM 41.0542 -74.1081 22° Northeast 456 525 39,000  Level Boston Center
Sun 08:18:52 PM 41.1739 -74.0422 22° Northeast 456 525 39,000  Level Boston Center
Sun 08:19:53 PM 41.2936 -73.9844 20° North 456 525 39,000  Level Boston Center
Sun 08:20:52 PM 41.4133 -73.9236 21° North 456 525 39,000  Level Boston Center
Sun 08:21:52 PM 41.5308 -73.8628 21° North 456 525 39,000  Level Boston Center
Sun 08:22:53 PM 41.6544 -73.8100 18° North 456 525 39,000 -1,240 Level Boston Center
Sun 08:23:53 PM 41.7794 -73.8069 North 439 505 36,500 -2,700 Descending Boston Center
Sun 08:24:53 PM 41.8856 -73.8119 358° North 439 505 33,600 -1,765 Descending Boston Center
Sun 08:25:52 PM 42.0128 -73.8119 360° North 439 505 33,000 -303 Descending Boston Center
Sun 08:26:52 PM 42.1419 -73.8092 North 445 512 33,000 -1,426 Level Boston Center
Sun 08:27:54 PM 42.2692 -73.8119 359° North 450 518 30,100 -2,231 Descending Boston Center
Sun 08:28:53 PM 42.3983 -73.8119 360° North 455 524 28,500 -1,361 Descending Boston Center
Sun 08:29:53 PM 42.5136 -73.7667 16° North 436 502 27,400 -1,109 Descending Boston Center
Sun 08:30:52 PM 42.5653 -73.6156 65° Northeast 394 453 26,300 -1,059 Descending Boston Center
Sun 08:31:52 PM 42.5917 -73.4581 77° East 389 448 25,300 -1,000 Descending Boston Center
Sun 08:32:52 PM 42.6203 -73.3006 76° East 406 467 24,300 -984 Descending Boston Center
Sun 08:33:54 PM 42.6483 -73.1458 76° East 413 475 23,300 -1,091 Descending Boston Center
Sun 08:34:53 PM 42.6764 -72.9711 78° East 413 475 22,100 -1,500 Descending Boston Center
Sun 08:35:54 PM 42.6958 -72.8214 80° East 413 475 20,300 -1,785 Descending Boston Center
Sun 08:36:54 PM 42.7169 -72.6858 78° East 392 451 18,500 -1,881 Descending Boston Center
Sun 08:37:52 PM 42.7358 -72.5475 79° East 372 428 16,600 -1,881 Descending Boston Center
Sun 08:38:52 PM 42.7547 -72.4147 79° East 361 415 14,800 -1,800 Descending Boston Center
Sun 08:39:52 PM 42.7733 -72.2817 79° East 356 410 13,000 -1,686 Descending Boston Center
Sun 08:40:53 PM 42.7897 -72.1686 79° East 350 403 11,400 -1,587 Descending Boston Center
Sun 08:41:53 PM 42.8061 -72.0411 80° East 325 374 9,800 -1,339 Descending Boston Center
Sun 08:42:54 PM 42.8203 -71.9447 79° East 300 345 8,700 -1,488 Descending Boston Center
Sun 08:43:54 PM 42.8219 -71.8342 89° East 269 310 6,800 -1,613 Descending Boston Center
Sun 08:44:53 PM 42.8028 -71.7553 108° East 256 295 5,500 -1,100 Descending Boston Center
Sun 08:45:54 PM 42.7833 -71.6622 106° East 238 274 4,600 -750 Descending Boston Center
Sun 08:46:53 PM 42.8017 -71.6081 65° Northeast 175 201 4,000 -1,000 Descending Boston Center
Sun 08:47:54 PM 42.8367 -71.5653 42° Northeast 153 176 2,600 -1,041 Descending Boston Center
Sun 08:48:54 PM 42.8656 -71.5281 43° Northeast 153 176 1,900 -800 Descending Boston Center
Sun 08:49:54 PM 42.8986 -71.4850 44° Northeast 147 169 1,000 -800 Descending Boston Center
Sun 08:50:54 PM 42.9256 -71.4533 41° Northeast 147 169 300 4,068 Descending Boston Center
Sun 08:51:52 PM 42.9606 -71.4131 40° Northeast 147 169 9,000 4,314 Climbing Boston Center
Sun 08:52:55 PM 42.9914 -71.3786 39° Northeast 147 169 9,000  Level Boston Center
Sun 08:53:52 PM 43.0225 -71.3411 41° Northeast 147 169 9,000  Level Boston Center
Sun 08:54:54 PM 43.0533 -71.3064 39° Northeast 147 169 9,000  Level Boston Center
Sun 08:55:52 PM 43.0533 -71.3064 14° North 147 169 9,000  Level Boston Center
Sun 08:57:00 PM 42.9361 -71.4153 214° Southwest  Level FlightAware Approximate
Sun 09:04:00 PM 42.9328 -71.4358 216° Southwest  Level Estimated
Sun 09:05:00 PM 42.9328 -71.4358 216° Southwest  Level Estimated
Sun 09:06:00 PM 42.9328 -71.4358 216° Southwest  Level Estimated
Sun 09:07:00 PM 42.9328 -71.4358 216° Southwest  Level Estimated
Sun 09:08:00 PM 42.9328 -71.4358 216° Southwest  Level Estimated
Sun 09:09:00 PM 42.9328 -71.4358 216° Southwest  Level Estimated

Login

Don't have an account? Register now (free) for customized features, flight alerts, and more!